Observations for Trim Market St
| Time | AQI | Temp °C | Hum % | Pres Pa | CO μg/m³ | H₂S μg/m³ | NO μg/m³ | NO₂ μg/m³ | O₃ μg/m³ | SO₂ μg/m³ | PM1 μg/m³ | PM2.5 μg/m³ | PM10 μg/m³ |
|---|---|---|---|---|---|---|---|---|---|---|---|---|---|
| Wednesday 15 July 2026 | |||||||||||||
| 08:49 | 1 | 24.6 | 59 | 57,585 | 0.04 | 0 | 0.3 | 3.7 | 16.69 | 0 | 11.4 | 15.6 | 23.42 |
| 08:48 | 1 | 24.4 | 59 | 57,559 | 0 | 0 | 0 | 2.93 | 18.42 | 0 | 11.4 | 16.08 | 22.7 |
| 08:47 | 1 | 24.3 | 60 | 57,528 | 0 | 0 | 1.52 | 9.85 | 19.57 | 0 | 10.69 | 14.07 | 20.62 |
| 08:45 | 1 | 24.1 | 60 | 57,503 | 0 | 0 | 0.21 | 3.79 | 21.31 | 0 | 12.11 | 17.07 | 25.43 |
| 08:43 | 1 | 23.9 | 60 | 57,482 | 0 | 0 | 3.19 | 9.33 | 14.44 | 0 | 11.4 | 14.55 | 21.29 |
| 08:35 | 1 | 23.5 | 59 | 57,510 | 0 | 0 | 0 | 0.78 | 17.3 | 0 | 13.54 | 18.09 | 28.24 |
| 08:34 | 1 | 23.5 | 59 | 57,523 | 0 | 0 | 0 | 0 | 20.64 | 0 | 13.54 | 16.61 | 25.51 |
| 08:32 | 1 | 23.6 | 59 | 57,558 | 0 | 0 | 0 | 0 | 16.99 | 0 | 12.83 | 16.12 | 23.46 |
| 08:31 | 1 | 23.6 | 59 | 57,571 | 0 | 0 | 0 | 0 | 15.42 | 0 | 10.69 | 15.13 | 21.4 |
| 08:24 | 1 | 24 | 58 | 57,647 | 0 | 0 | 0 | 0 | 10.1 | 0 | 13.54 | 16.18 | 24.95 |
| 08:23 | 1 | 24.1 | 58 | 57,659 | 0 | 0 | 0 | 0 | 6.05 | 0 | 13.54 | 17.7 | 26.36 |
| 08:22 | 1 | 24.1 | 58 | 57,665 | 0 | 0 | 0 | 0 | 4.73 | 0 | 11.4 | 14.68 | 20.08 |
| 08:21 | 1 | 24.2 | 58 | 57,675 | 0 | 0 | 0 | 0 | 5.83 | 0 | 11.4 | 14.68 | 21.48 |
| 08:20 | 1 | 24.3 | 58 | 57,681 | 0 | 0 | 0 | 0 | 5.82 | 0 | 12.83 | 15.19 | 20.79 |
| 08:19 | 1 | 24.3 | 58 | 57,691 | 0 | 0 | 0 | 0 | 3.32 | 0 | 9.98 | 14.19 | 20.1 |
| 08:18 | 1 | 24.4 | 58 | 57,701 | 0 | 0 | 0 | 0 | 0.59 | 0 | 12.11 | 16.21 | 24.3 |
| 08:17 | 1 | 24.5 | 58 | 57,706 | 0 | 0 | 0 | 0 | 1.82 | 0 | 10.69 | 15.2 | 22.2 |
| 08:16 | 1 | 24.5 | 58 | 57,705 | 0 | 0 | 0 | 0 | 0 | 0 | 11.4 | 15.7 | 23.6 |
| 08:15 | 1 | 24.6 | 58 | 57,703 | 0.02 | 0 | 0 | 0 | 0 | 0 | 9.26 | 15.18 | 21.48 |
| 08:14 | 1 | 24.6 | 58 | 57,699 | 0.06 | 0 | 0 | 0 | 0 | 0 | 9.98 | 13.17 | 17.99 |